Etusivu
METAR-TAF:

METAR-TAF

Lentoasemat :

Owatonna Degner Regional Airport

Owatonna, Minnesota, Yhdysvallat

Leveyspiiri: 44-07N, Pituuspiiri: 093-15W, korkeus merenpinnasta: 350 m

Tämänhetkinen sää

Tämä raportti tehtiin 24 minuuttia sitten, kello 16.54 UTC
Tuuli 11 kn etelästä
Lämpötila -3°C
Kosteus 74%
Ilmanpaine 1013 hPa
Näkyvyys: 16.1 km
Hajanaisia pilviä 6000 ft:n korkeudessa
Hajonneita pilviä 9000 ft:n korkeudessa

METAR: KOWA 131654Z AUTO 19011KT 10SM SCT060 BKN090 M03/M07 A2990 RMK AO2

Aika: 11:18 (17:18 UTC)


TAF: puuttuu

Säähavainnot ja -ennusteet yli 4000 lentoasemalta (METAR- ja TAF-raportit).

Käytössä olevat sääasemat on merkitty karttaan keltaisilla ja punaisilla pisteillä.

Aseta hiiri pisteen päälle nähdäksesi sääaseman nimen.

Klikkaa sitten nähdäksesi säähavainnot ja -ennusteet.

Kartan vaihtaminen: klikkaa mustalla rastilla varustettuja vihreitä pisteitä, niin voit zoomata sisään; viivalla varustettua vihreää pistettä, niin voit zoomata ulos tai vihreitä nuolia, niin pääset viereisille kartoille.


METAR-TAF: